This is the latest recevied weather packets stored in our database for station/object N2UGS-WX. If no packets are shown the sender has not sent any weather packets the latest 10 day(s).
| Time | Temp. | Humidity | Pressure | Rain* | Wind** | Luminosity | Snow |
|---|---|---|---|---|---|---|---|
| 1777419003 | 16.67° C | 71% | 1012.2 hPa | 0 mm | - | - | - |
| 1777418103 | 17.22° C | 69% | 1011.9 hPa | 0 mm | - | - | - |
| 1777417502 | 17.78° C | 68% | 1012.2 hPa | 0 mm | - | - | - |
| 1777416603 | 17.78° C | 66% | 1011.9 hPa | 0 mm | - | - | - |
| 1777416002 | 17.78° C | 66% | 1012.2 hPa | 0 mm | - | - | - |
| 1777415103 | 17.78° C | 66% | 1012.2 hPa | 0 mm | - | - | - |
| 1777414202 | 17.78° C | 67% | 1011.9 hPa | 0 mm | - | - | - |
| 1777413302 | 17.78° C | 67% | 1012.2 hPa | 0 mm | - | - | - |
| 1777412403 | 18.33° C | 65% | 1011.9 hPa | 0 mm | - | - | - |
| 1777411502 | 18.89° C | 62% | 1012.2 hPa | 0 mm | - | - | - |
| 1777410603 | 18.33° C | 65% | 1012.2 hPa | 0 mm | - | - | - |
| 1777409702 | 17.22° C | 69% | 1012.5 hPa | 0 mm | - | - | - |
| 1777409042 | 16.67° C | 70% | 1012.5 hPa | 0 mm | - | - | - |
| 1777408142 | 17.22° C | 70% | 1012.5 hPa | 0 mm | - | - | - |
| 1777407242 | 17.22° C | 71% | 1012.5 hPa | 0 mm | - | - | - |
| 1777406342 | 16.67° C | 71% | 1012.5 hPa | 0 mm | - | - | - |
| 1777405442 | 17.22° C | 68% | 1012.5 hPa | 0 mm | - | - | - |
| 1777404842 | 17.22° C | 67% | 1012.5 hPa | 0 mm | - | - | - |
| 1777403942 | 17.78° C | 65% | 1012.5 hPa | 0 mm | - | - | - |
| 1777403102 | 17.78° C | 65% | 1012.5 hPa | 0 mm | - | - | - |
| 1777402202 | 18.33° C | 64% | 1012.2 hPa | 0 mm | - | - | - |
| 1777401542 | 18.33° C | 63% | 1012.2 hPa | 0 mm | - | - | - |
| 1777400702 | 18.33° C | 62% | 1012.2 hPa | 0 mm | - | - | - |
| 1777400042 | 18.89° C | 61% | 1011.9 hPa | 0 mm | - | - | - |
| 1777399261 | 19.44° C | 58% | 1011.9 hPa | 0 mm | - | - | - |
* Rain latest hour (hover to see other rain measurements)
** Current wind speed in m/s (hover to see current wind gust speed)